Time;durP1;ratioP1;P1;durP2;ratioP2;P2;SDS_P1;SDS_P2;PMS_P1;PMS_P2;Temp;Humidity;BMP_temperature;BMP_pressure;BME280_temperature;BME280_humidity;BME280_pressure;Samples;Min_cycle;Max_cycle;Signal;HPM_P1;HPM_P2
2021/07/25 00:02:22;;;;;;;;;;;;;;;17.78;90.88;100854.22;5114730;27;20024;-35
2021/07/25 00:04:48;;;;;;;25.00;21.88;;;;;;;17.65;92.27;100848.19;5115203;28;20006;-35
2021/07/25 00:07:13;;;;;;;;;;;;;;;17.77;90.95;100855.31;5115885;28;20046;-35
2021/07/25 00:09:38;;;;;;;21.50;19.20;;;;;;;17.65;91.85;100855.56;5114534;28;19911;-35
2021/07/25 00:12:04;;;;;;;23.35;20.50;;;;;;;17.67;91.77;100846.00;5114831;28;20307;-35
2021/07/25 00:14:29;;;;;;;;;;;;;;;17.79;90.64;100851.19;5114774;28;20027;-35
2021/07/25 00:16:54;;;;;;;15.30;13.70;;;;;;;17.87;89.78;100841.59;5114845;28;19911;-35
2021/07/25 00:19:20;;;;;;;;;;;;;;;17.90;89.43;100847.31;5114815;28;20024;-35
2021/07/25 00:21:45;;;;;;;19.63;17.60;;;;;;;17.77;91.09;100838.91;5114775;28;19911;-36
2021/07/25 00:24:10;;;;;;;;;;;;;;;17.85;89.27;100832.84;5114307;28;20474;-36
2021/07/25 00:26:45;;;;;;;16.95;15.15;;;;;;;17.69;90.69;100827.41;5113880;28;19914;-35
2021/07/25 00:29:11;;;;;;;20.27;17.20;;;;;;;17.66;90.59;100832.59;5114157;28;20047;-35
2021/07/25 00:31:39;;;;;;;;;;;;;;;17.76;89.43;100832.59;5114649;28;20055;-35
2021/07/25 00:34:04;;;;;;;14.80;13.25;;;;;;;17.66;90.32;100832.59;5115134;28;19904;-35
2021/07/25 00:36:30;;;;;;;18.75;16.83;;;;;;;17.56;90.74;100833.44;5114422;28;20053;-35
2021/07/25 00:38:56;;;;;;;;;;;;;;;17.71;89.88;100829.84;5114475;28;20026;-35
2021/07/25 00:41:21;;;;;;;18.30;15.37;;;;;;;17.46;90.39;100800.66;5113559;28;19903;-35
2021/07/25 00:43:47;;;;;;;;;;;;;;;17.67;89.51;100817.84;5114021;28;20027;-35
2021/07/25 00:46:13;;;;;;;17.83;14.98;;;;;;;17.46;90.46;100796.03;5114261;28;19907;-36
2021/07/25 00:48:39;;;;;;;16.95;15.15;;;;;;;17.49;90.28;100817.34;5113703;28;20081;-36
2021/07/25 00:51:06;;;;;;;18.48;16.63;;;;;;;17.35;90.75;100796.34;5113736;28;20019;-36
2021/07/25 00:53:34;;;;;;;20.02;16.63;;;;;;;17.36;91.43;100814.38;5113681;28;20016;-36
2021/07/25 00:56:00;;;;;;;17.73;15.88;;;;;;;17.28;91.02;100812.22;5113906;28;20119;-35
2021/07/25 00:58:26;;;;;;;17.05;14.75;;;;;;;17.32;91.11;100805.88;5113972;28;20355;-35
2021/07/25 01:00:51;;;;;;;15.75;14.15;;;;;;;17.28;91.24;100809.47;5113644;28;20020;-36
2021/07/25 01:03:33;;;;;;;15.20;13.60;;;;;;;17.33;91.25;100804.81;5113733;28;20019;-35
2021/07/25 01:06:10;;;;;;;14.60;12.88;;;;;;;17.19;90.65;100773.69;5114320;28;20442;-35
2021/07/25 01:08:42;;;;;;;15.88;12.50;;;;;;;17.38;91.04;100804.00;5114138;28;20058;-35
2021/07/25 01:11:09;;;;;;;14.27;12.73;;;;;;;17.31;90.81;100801.53;5114132;28;20106;-35
2021/07/25 01:13:39;;;;;;;15.57;13.40;;;;;;;17.31;91.44;100804.25;5114020;28;20018;-35
2021/07/25 01:16:05;;;;;;;15.32;12.50;;;;;;;17.30;90.89;100796.34;5113705;28;20063;-35
2021/07/25 01:18:30;;;;;;;12.75;11.45;;;;;;;17.33;90.16;100798.53;5113500;28;20023;-35
2021/07/25 01:20:55;;;;;;;;;;;;;;;17.44;89.39;100798.22;5113891;28;20019;-35
2021/07/25 01:23:24;;;;;;;13.80;12.10;;;;;;;17.38;90.21;100804.81;5113092;28;19908;-35
2021/07/25 01:25:57;;;;;;;14.32;12.65;;;;;;;17.30;90.79;100801.81;5113808;28;20012;-35
2021/07/25 01:28:33;;;;;;;16.63;12.98;;;;;;;17.18;90.18;100769.34;5113373;28;20157;-35
2021/07/25 01:31:00;;;;;;;;;;;;;;;17.41;89.25;100797.94;5113734;28;20477;-35
2021/07/25 01:33:27;;;;;;;;;;;;;;;17.39;88.86;100803.72;5113996;28;19904;-35
2021/07/25 01:35:54;;;;;;;13.88;11.73;;;;;;;17.21;89.88;100794.16;5113432;28;19908;-35
2021/07/25 01:38:19;;;;;;;13.18;11.77;;;;;;;17.15;90.23;100797.19;5113645;28;20405;-35
2021/07/25 01:41:07;;;;;;;12.05;9.98;;;;;;;17.21;90.31;100794.16;5113659;28;20023;-35
2021/07/25 01:43:36;;;;;;;13.05;11.75;;;;;;;17.09;90.49;100801.03;5113326;28;20068;-35
2021/07/25 01:46:02;;;;;;;12.85;11.45;;;;;;;16.94;90.92;100791.78;5113284;28;20031;-35
2021/07/25 01:48:28;;;;;;;12.50;10.82;;;;;;;17.06;90.45;100802.41;5113494;28;20432;-35
2021/07/25 01:50:53;;;;;;;11.07;9.98;;;;;;;16.85;90.08;100774.28;5113479;28;20452;-35
2021/07/25 01:53:19;;;;;;;12.73;11.18;;;;;;;17.00;90.53;100806.22;5115443;28;20052;-35
2021/07/25 01:55:44;;;;;;;;;;;;;;;17.12;89.12;100806.75;5118100;28;20106;-35
2021/07/25 01:58:10;;;;;;;14.93;11.43;;;;;;;16.86;90.03;100777.84;5116755;28;19918;-36
2021/07/25 02:00:37;;;;;;;12.82;11.45;;;;;;;16.83;90.20;100787.38;5117586;27;20250;-35
2021/07/25 02:03:02;;;;;;;13.15;11.55;;;;;;;16.71;90.10;100778.63;5116850;28;20464;-36
2021/07/25 02:05:28;;;;;;;13.80;12.40;;;;;;;16.68;89.89;100787.34;5116926;28;20099;-35
2021/07/25 02:07:53;;;;;;;13.52;11.60;;;;;;;16.80;90.89;100792.59;5116705;28;20115;-35
2021/07/25 02:10:18;;;;;;;14.95;12.25;;;;;;;16.82;90.76;100793.13;5116503;28;20028;-35
2021/07/25 02:12:44;;;;;;;;;;;;;;;16.92;89.73;100790.38;5117182;28;20435;-35
2021/07/25 02:15:10;;;;;;;11.97;10.43;;;;;;;16.72;89.86;100781.13;5117213;28;19915;-35
2021/07/25 02:17:35;;;;;;;12.07;10.85;;;;;;;16.68;90.36;100768.25;5116570;28;20024;-35
2021/07/25 02:20:01;;;;;;;13.35;11.70;;;;;;;16.61;89.86;100765.81;5116940;28;20072;-35
2021/07/25 02:22:26;;;;;;;;;;;;;;;16.84;89.29;100775.41;5117267;28;20032;-35
2021/07/25 02:24:51;;;;;;;15.13;11.30;;;;;;;16.65;89.50;100764.16;5116654;28;20355;-35
2021/07/25 02:27:16;;;;;;;;;;;;;;;16.77;89.15;100776.75;5117175;28;20034;-35
2021/07/25 02:29:42;;;;;;;12.93;11.10;;;;;;;16.59;90.35;100769.88;5116399;28;20343;-35
2021/07/25 02:32:07;;;;;;;13.45;12.10;;;;;;;16.41;90.32;100769.34;5116161;28;20327;-35
2021/07/25 02:34:33;;;;;;;14.85;12.40;;;;;;;16.38;90.85;100767.16;5116727;28;20099;-35
2021/07/25 02:36:59;;;;;;;13.15;11.50;;;;;;;16.37;91.54;100761.97;5116851;28;20118;-35
2021/07/25 02:39:25;;;;;;;15.48;13.32;;;;;;;16.30;91.42;100769.59;5116466;28;20054;-35
2021/07/25 02:41:50;;;;;;;13.73;11.40;;;;;;;16.48;91.23;100782.72;5116764;27;20340;-35
2021/07/25 02:44:16;;;;;;;;;;;;;;;16.58;90.14;100785.44;5116784;28;20019;-35
2021/07/25 02:46:41;;;;;;;13.27;11.98;;;;;;;16.43;91.26;100774.53;5115769;28;19952;-35
2021/07/25 02:49:07;;;;;;;14.02;12.50;;;;;;;16.52;91.58;100781.09;5116546;28;20027;-35
2021/07/25 02:51:32;;;;;;;;;;;;;;;16.58;89.93;100777.25;5116747;28;20115;-35
2021/07/25 02:53:58;;;;;;;13.70;11.93;;;;;;;16.50;91.35;100766.91;5116729;28;19930;-35
2021/07/25 02:56:23;;;;;;;;;;;;;;;16.58;89.86;100773.72;5116435;28;20114;-36
2021/07/25 02:58:48;;;;;;;14.32;12.45;;;;;;;16.34;90.53;100765.22;5115549;28;19910;-35
2021/07/25 03:01:15;;;;;;;14.52;12.45;;;;;;;16.43;91.22;100772.59;5116152;28;20023;-35
2021/07/25 03:03:40;;;;;;;14.05;11.90;;;;;;;16.43;91.47;100767.16;5115644;28;20035;-35
2021/07/25 03:06:06;;;;;;;12.82;11.43;;;;;;;16.38;91.04;100753.50;5116085;28;20040;-35
2021/07/25 03:08:32;;;;;;;;;;;;;;;16.52;90.18;100763.88;5115889;28;20038;-36
2021/07/25 03:10:58;;;;;;;13.25;11.30;;;;;;;16.34;90.91;100749.66;5115727;28;20299;-36
2021/07/25 03:13:23;;;;;;;12.60;11.00;;;;;;;16.41;91.57;100758.44;5115685;28;20421;-35
2021/07/25 03:15:48;;;;;;;11.57;10.05;;;;;;;16.56;91.49;100754.06;5115859;28;20337;-35
2021/07/25 03:18:13;;;;;;;;;;;;;;;16.59;89.99;100754.34;5116317;28;20055;-35
2021/07/25 03:20:39;;;;;;;10.57;9.33;;;;;;;16.45;88.88;100750.53;5115567;28;20347;-36
2021/07/25 03:23:04;;;;;;;;;;;;;;;16.58;89.60;100747.22;5115532;28;20111;-35
2021/07/25 03:25:29;;;;;;;12.07;9.90;;;;;;;16.37;90.40;100746.41;5115049;28;19912;-35
2021/07/25 03:27:55;;;;;;;14.00;10.23;;;;;;;16.37;90.64;100742.88;5115024;28;20269;-35
2021/07/25 03:30:20;;;;;;;;;;;;;;;16.46;89.87;100754.88;5115361;28;20119;-35
2021/07/25 03:32:45;;;;;;;11.45;9.98;;;;;;;16.40;90.42;100758.72;5114860;28;19903;-35
2021/07/25 03:35:11;;;;;;;11.43;10.23;;;;;;;16.32;90.72;100759.22;5115535;28;20031;-35
2021/07/25 03:37:43;;;;;;;;;;;;;;;16.42;89.50;100759.25;5115312;28;20509;-35
2021/07/25 03:40:09;;;;;;;10.63;9.23;;;;;;;16.30;90.72;100756.78;5115080;28;20351;-36
2021/07/25 03:42:35;;;;;;;11.70;9.57;;;;;;;16.19;90.57;100731.38;5115834;28;20296;-35
2021/07/25 03:45:00;;;;;;;12.05;9.48;;;;;;;16.23;90.91;100740.66;5114715;28;20019;-35
2021/07/25 03:47:25;;;;;;;10.57;9.45;;;;;;;16.17;90.98;100732.75;5115714;28;20395;-35
2021/07/25 03:49:51;;;;;;;11.85;8.65;;;;;;;16.22;90.65;100747.22;5114865;28;20022;-35
2021/07/25 03:52:16;;;;;;;;;;;;;;;16.41;90.16;100760.34;5115482;28;20073;-35
2021/07/25 03:54:44;;;;;;;9.67;8.67;;;;;;;16.30;90.80;100751.34;5115276;28;19956;-35
2021/07/25 03:57:10;;;;;;;9.73;8.73;;;;;;;16.34;90.47;100748.84;5114897;28;20015;-35
2021/07/25 03:59:37;;;;;;;10.38;8.75;;;;;;;16.30;90.97;100753.22;5114864;28;20020;-35
2021/07/25 04:02:03;;;;;;;14.93;9.65;;;;;;;16.24;90.91;100746.94;5114803;28;20106;-35
2021/07/25 04:04:28;;;;;;;11.70;9.18;;;;;;;16.29;90.35;100754.31;5114913;28;20456;-36
2021/07/25 04:06:53;;;;;;;9.30;8.40;;;;;;;16.28;90.45;100750.75;5114833;28;20135;-35
2021/07/25 04:09:19;;;;;;;;;;;;;;;16.44;89.94;100754.31;5115165;28;20047;-35
2021/07/25 04:11:44;;;;;;;10.15;8.32;;;;;;;16.34;89.80;100757.03;5114394;28;19908;-35
2021/07/25 04:14:09;;;;;;;9.13;7.50;;;;;;;16.35;90.48;100753.25;5114134;28;20103;-36
2021/07/25 04:16:35;;;;;;;9.02;7.90;;;;;;;16.21;89.82;100748.31;5114161;28;20059;-35
2021/07/25 04:19:00;;;;;;;;;;;;;;;16.36;89.53;100746.69;5114763;28;20023;-35
2021/07/25 04:21:26;;;;;;;10.37;7.80;;;;;;;16.19;89.55;100755.94;5114576;28;20417;-35
2021/07/25 04:23:51;;;;;;;;;;;;;;;16.32;89.08;100760.06;5114549;28;20581;-35
2021/07/25 04:26:17;;;;;;;9.27;7.95;;;;;;;16.10;89.37;100743.91;5114377;28;19998;-35
2021/07/25 04:28:42;;;;;;;10.23;8.70;;;;;;;16.12;90.29;100751.84;5114410;27;20024;-35
2021/07/25 04:31:08;;;;;;;;;;;;;;;16.25;89.03;100750.47;5114180;28;20476;-35
2021/07/25 04:33:35;;;;;;;9.50;7.90;;;;;;;16.22;90.06;100749.94;5113934;28;19903;-36
2021/07/25 04:36:00;;;;;;;8.48;7.57;;;;;;;16.31;90.31;100757.59;5114278;28;20072;-35
2021/07/25 04:38:26;;;;;;;10.85;9.60;;;;;;;16.10;90.91;100741.19;5113954;28;20012;-35
2021/07/25 04:41:01;;;;;;;;;;;;;;;16.34;89.55;100762.50;5114375;28;20034;-35
2021/07/25 04:43:30;;;;;;;13.93;9.18;;;;;;;16.25;90.48;100764.13;5113526;28;19903;-35
2021/07/25 04:46:07;;;;;;;10.00;9.00;;;;;;;16.35;90.91;100764.16;5114578;28;20020;-35
2021/07/25 04:48:43;;;;;;;9.55;8.43;;;;;;;16.28;90.84;100748.03;5113383;28;20463;-35
2021/07/25 04:51:10;;;;;;;11.37;9.60;;;;;;;16.41;90.25;100763.06;5114341;28;20028;-35
2021/07/25 04:53:40;;;;;;;9.27;8.38;;;;;;;16.39;90.83;100752.41;5113472;28;20023;-35
2021/07/25 04:56:11;;;;;;;10.27;8.73;;;;;;;16.51;90.16;100756.81;5113771;28;20023;-35
2021/07/25 04:59:02;;;;;;;10.77;8.95;;;;;;;16.44;90.74;100751.59;5113982;28;20038;-35
2021/07/25 05:01:31;;;;;;;11.65;7.82;;;;;;;16.59;90.82;100761.69;5113457;28;20476;-35
2021/07/25 05:04:00;;;;;;;10.48;9.38;;;;;;;16.55;90.93;100757.91;5113986;28;20019;-35
2021/07/25 05:06:26;;;;;;;10.45;9.02;;;;;;;16.50;90.54;100738.78;5113818;28;20475;-36
2021/07/25 05:08:51;;;;;;;12.95;10.10;;;;;;;16.54;90.91;100756.22;5113937;28;20058;-35
2021/07/25 05:11:17;;;;;;;;;;;;;;;16.67;89.76;100756.50;5113419;28;20504;-35
2021/07/25 05:13:46;;;;;;;12.90;10.02;;;;;;;16.58;90.14;100751.88;5113625;28;19908;-40
2021/07/25 05:16:15;;;;;;;13.20;11.10;;;;;;;16.60;90.36;100750.53;5113932;28;20575;-35
2021/07/25 05:18:46;;;;;;;14.73;10.70;;;;;;;16.76;90.24;100761.47;5113633;28;20022;-36
2021/07/25 05:21:27;;;;;;;19.50;12.00;;;;;;;16.73;90.33;100768.28;5113604;28;20363;-35
2021/07/25 05:23:54;;;;;;;14.65;11.43;;;;;;;16.81;90.56;100756.00;5113299;28;20024;-35
2021/07/25 05:26:28;;;;;;;11.85;9.93;;;;;;;16.88;90.54;100761.97;5113964;28;20034;-35
2021/07/25 05:28:56;;;;;;;13.18;11.57;;;;;;;16.91;90.21;100777.84;5117423;28;20015;-36
2021/07/25 05:31:29;;;;;;;13.93;11.90;;;;;;;16.83;90.06;100762.00;5117880;27;20067;-36
2021/07/25 05:33:54;;;;;;;16.83;12.77;;;;;;;16.96;89.97;100773.19;5118085;28;20353;-36
2021/07/25 05:36:20;;;;;;;16.77;12.10;;;;;;;17.15;89.44;100761.69;5117846;28;20035;-37
2021/07/25 05:38:45;;;;;;;;;;;;;;;17.37;89.28;100777.72;5118242;28;20082;-35
2021/07/25 05:41:10;;;;;;;15.30;11.95;;;;;;;17.34;88.48;100781.03;5118128;28;19903;-35
2021/07/25 05:43:35;;;;;;;;;;;;;;;17.44;88.36;100786.47;5117653;28;20152;-35
2021/07/25 05:46:02;;;;;;;18.27;13.37;;;;;;;17.19;88.39;100765.50;5117190;28;20348;-35
2021/07/25 05:48:27;;;;;;;15.55;12.50;;;;;;;17.15;89.08;100772.59;5117228;28;20023;-35
2021/07/25 05:50:52;;;;;;;16.92;12.55;;;;;;;17.24;89.10;100781.88;5116958;28;20149;-35
2021/07/25 05:53:17;;;;;;;;;;;;;;;17.36;88.83;100778.84;5117674;28;20047;-35
2021/07/25 05:55:43;;;;;;;16.60;11.47;;;;;;;17.30;88.79;100763.56;5117640;28;19903;-35
2021/07/25 05:58:08;;;;;;;;;;;;;;;17.58;88.56;100781.25;5117372;28;20436;-35
2021/07/25 06:00:33;;;;;;;12.68;11.02;;;;;;;17.68;88.42;100775.72;5117159;28;19965;-35
2021/07/25 06:03:00;;;;;;;;;;;;;;;17.93;87.88;100775.63;5117347;28;20023;-36
2021/07/25 06:05:30;;;;;;;13.73;11.63;;;;;;;18.00;87.46;100784.34;5117064;28;19915;-35
2021/07/25 06:07:56;;;;;;;14.38;11.90;;;;;;;17.93;87.17;100770.16;5117275;27;20230;-35
2021/07/25 06:10:23;;;;;;;12.13;10.25;;;;;;;18.10;86.67;100780.72;5117201;28;20115;-35
2021/07/25 06:12:51;;;;;;;14.43;12.20;;;;;;;18.13;87.14;100776.63;5116557;28;20026;-35
2021/07/25 06:15:17;;;;;;;15.35;11.40;;;;;;;18.11;87.84;100774.19;5116662;28;20019;-35
2021/07/25 06:17:42;;;;;;;;;;;;;;;18.21;87.10;100776.84;5116954;28;20035;-35
2021/07/25 06:20:07;;;;;;;12.15;10.88;;;;;;;18.14;86.85;100781.81;5116806;27;19958;-35
2021/07/25 06:22:37;;;;;;;;;;;;;;;18.24;87.13;100765.31;5115677;28;20032;-35
2021/07/25 06:25:03;;;;;;;15.60;10.77;;;;;;;18.13;86.98;100769.22;5117056;28;19907;-35
2021/07/25 06:27:28;;;;;;;13.20;11.05;;;;;;;18.15;86.51;100766.19;5115988;27;20027;-35
2021/07/25 06:29:54;;;;;;;;;;;;;;;18.31;86.56;100769.66;5116501;28;20463;-36
2021/07/25 06:32:19;;;;;;;12.83;11.17;;;;;;;18.31;86.31;100766.94;5116016;28;19933;-35
2021/07/25 06:34:44;;;;;;;;;;;;;;;18.45;86.34;100767.94;5115817;28;20113;-35
2021/07/25 06:37:09;;;;;;;14.17;10.57;;;;;;;18.29;85.96;100753.50;5117069;28;20036;-35
2021/07/25 06:39:35;;;;;;;;;;;;;;;18.51;86.31;100761.31;5115894;28;20020;-35
2021/07/25 06:42:00;;;;;;;13.60;10.23;;;;;;;18.47;85.21;100765.72;5116213;28;19904;-35
2021/07/25 06:44:25;;;;;;;;;;;;;;;18.60;85.97;100765.06;5116801;28;20274;-36
2021/07/25 06:46:50;;;;;;;14.97;10.10;;;;;;;18.77;85.46;100765.47;5116750;28;19995;-35
2021/07/25 06:49:16;;;;;;;;;;;;;;;19.01;85.38;100770.19;5116405;28;20063;-36
2021/07/25 06:51:41;;;;;;;13.97;10.40;;;;;;;19.11;83.63;100767.34;5116025;28;20263;-41
2021/07/25 06:54:06;;;;;;;;;;;;;;;19.30;84.76;100773.72;5116288;28;20143;-36
2021/07/25 06:56:31;;;;;;;12.20;10.90;;;;;;;19.28;82.79;100775.97;5116205;28;19903;-36
2021/07/25 06:58:57;;;;;;;;;;;;;;;19.48;84.03;100776.84;5115903;28;20272;-36
2021/07/25 07:01:22;;;;;;;13.90;10.53;;;;;;;19.46;82.28;100779.84;5115420;28;19904;-35
2021/07/25 07:03:47;;;;;;;;;;;;;;;19.60;83.15;100773.69;5116720;28;20318;-36
2021/07/25 07:06:12;;;;;;;12.27;10.82;;;;;;;19.51;81.88;100778.97;5115788;28;19918;-35
2021/07/25 07:08:38;;;;;;;;;;;;;;;19.59;82.20;100785.75;5116084;28;20034;-35
2021/07/25 07:11:03;;;;;;;11.47;10.27;;;;;;;19.54;81.09;100773.75;5115563;28;19914;-35
2021/07/25 07:13:28;;;;;;;;;;;;;;;19.72;81.99;100779.59;5116238;28;20721;-35
2021/07/25 07:15:54;;;;;;;15.90;11.00;;;;;;;19.71;80.63;100773.28;5115592;28;20393;-36
2021/07/25 07:18:19;;;;;;;;;;;;;;;19.85;81.89;100772.56;5115939;27;20593;-35
2021/07/25 07:20:45;;;;;;;13.18;11.27;;;;;;;19.80;80.88;100784.41;5116156;28;19907;-36
2021/07/25 07:23:11;;;;;;;;;;;;;;;19.95;82.00;100788.88;5116004;28;20462;-36
2021/07/25 07:25:42;;;;;;;14.57;11.40;;;;;;;19.91;80.52;100794.16;5115583;28;19953;-35
2021/07/25 07:28:08;;;;;;;13.65;11.45;;;;;;;19.86;80.28;100783.22;5115430;28;20482;-36
2021/07/25 07:30:35;;;;;;;;;;;;;;;20.05;81.54;100796.97;5115748;28;20032;-35
2021/07/25 07:33:07;;;;;;;12.52;10.93;;;;;;;20.03;81.21;100785.50;5115532;28;19904;-36
2021/07/25 07:35:32;;;;;;;14.07;11.20;;;;;;;20.05;80.93;100786.81;5115530;28;20114;-35
2021/07/25 07:37:57;;;;;;;;;;;;;;;20.18;80.63;100788.03;5115476;27;20055;-36
2021/07/25 07:40:22;;;;;;;13.30;10.27;;;;;;;20.02;80.03;100765.47;5115124;28;19903;-35
2021/07/25 07:42:48;;;;;;;;;;;;;;;20.27;80.28;100783.50;5115844;28;20277;-36
2021/07/25 07:45:15;;;;;;;15.00;11.35;;;;;;;20.25;80.04;100783.00;5114902;28;19932;-35
2021/07/25 07:47:40;;;;;;;13.75;10.95;;;;;;;20.35;79.61;100783.94;5113739;28;20051;-35
2021/07/25 07:50:06;;;;;;;;;;;;;;;20.51;80.57;100782.63;5114416;28;20116;-36
2021/07/25 07:52:31;;;;;;;13.23;10.40;;;;;;;20.50;79.35;100786.50;5115389;28;19904;-35
2021/07/25 07:54:56;;;;;;;;;;;;;;;20.62;80.30;100780.53;5115156;28;20062;-36
2021/07/25 07:57:22;;;;;;;12.90;9.57;;;;;;;20.57;78.98;100782.22;5114596;28;19954;-36
2021/07/25 07:59:47;;;;;;;;;;;;;;;20.73;79.33;100784.72;5114693;28;20297;-36
2021/07/25 08:02:12;;;;;;;10.10;8.50;;;;;;;20.75;78.93;100779.75;5114394;28;19956;-36
2021/07/25 08:04:38;;;;;;;12.07;8.95;;;;;;;20.81;78.24;100773.88;5114435;28;20076;-36
2021/07/25 08:07:03;;;;;;;13.13;9.23;;;;;;;20.83;78.06;100779.88;5114694;28;20039;-35
2021/07/25 08:09:29;;;;;;;12.40;8.57;;;;;;;20.91;77.79;100780.31;5114264;27;20459;-36
2021/07/25 08:11:54;;;;;;;11.32;8.27;;;;;;;20.99;77.13;100780.44;5114637;28;20023;-36
2021/07/25 08:14:20;;;;;;;10.80;8.00;;;;;;;21.02;78.23;100782.56;5114344;27;20034;-35
2021/07/25 08:16:47;;;;;;;11.60;7.90;;;;;;;21.07;77.14;100781.66;5114519;28;20077;-36
2021/07/25 08:19:13;;;;;;;11.13;8.23;;;;;;;21.09;75.53;100780.25;5113871;28;20020;-36
2021/07/25 08:21:42;;;;;;;10.05;7.60;;;;;;;21.11;75.59;100784.63;5114438;28;20110;-36
2021/07/25 08:24:08;;;;;;;12.65;7.25;;;;;;;21.12;75.56;100789.81;5114771;28;20020;-36
2021/07/25 08:26:34;;;;;;;11.13;6.70;;;;;;;21.21;75.13;100792.69;5114063;28;20031;-35
2021/07/25 08:29:00;;;;;;;9.90;7.53;;;;;;;21.25;74.51;100786.28;5114068;28;20044;-36
2021/07/25 08:31:26;;;;;;;8.43;6.68;;;;;;;21.39;75.04;100783.56;5114323;28;20150;-36
2021/07/25 08:33:51;;;;;;;10.18;6.75;;;;;;;21.56;72.98;100793.94;5113960;28;20022;-36
2021/07/25 08:36:17;;;;;;;10.65;6.68;;;;;;;21.60;72.33;100800.47;5114691;28;20069;-35
2021/07/25 08:38:43;;;;;;;9.68;7.43;;;;;;;21.63;73.05;100788.06;5114378;28;20487;-35
2021/07/25 08:41:12;;;;;;;11.57;6.60;;;;;;;21.90;72.50;100798.22;5114104;27;20027;-35
2021/07/25 08:43:41;;;;;;;9.48;6.78;;;;;;;21.87;74.06;100798.84;5113973;28;20076;-35
2021/07/25 08:46:14;;;;;;;12.73;7.28;;;;;;;21.97;73.22;100804.94;5114264;28;20062;-35
2021/07/25 08:48:44;;;;;;;10.45;7.50;;;;;;;22.05;72.45;100811.66;5114601;28;20032;-36
2021/07/25 08:51:15;;;;;;;8.02;5.80;;;;;;;22.19;72.59;100804.22;5114109;28;20363;-35
2021/07/25 08:53:49;;;;;;;8.95;6.10;;;;;;;22.27;72.57;100792.47;5114044;28;20031;-36
2021/07/25 08:56:15;;;;;;;11.10;5.72;;;;;;;22.50;70.35;100801.56;5114075;28;20106;-35
2021/07/25 08:58:44;;;;;;;8.00;5.80;;;;;;;22.58;69.76;100802.75;5113703;28;20068;-36
2021/07/25 09:01:14;;;;;;;11.20;6.53;;;;;;;22.79;70.11;100803.91;5113997;28;20023;-35
2021/07/25 09:03:39;;;;;;;11.68;6.25;;;;;;;22.70;68.79;100805.78;5113498;28;20023;-36
2021/07/25 09:06:05;;;;;;;9.45;6.00;;;;;;;22.72;69.44;100798.00;5113949;28;20074;-36
2021/07/25 09:08:31;;;;;;;9.20;6.30;;;;;;;22.73;68.21;100801.56;5114489;28;20072;-36
2021/07/25 09:11:06;;;;;;;10.35;7.05;;;;;;;22.90;69.38;100800.91;5114430;28;20074;-36
2021/07/25 09:13:31;;;;;;;9.85;6.32;;;;;;;22.99;68.70;100797.09;5114131;28;20421;-36
2021/07/25 09:15:57;;;;;;;6.72;5.90;;;;;;;23.11;67.72;100800.06;5113611;28;20248;-36
2021/07/25 09:18:22;;;;;;;12.80;6.55;;;;;;;23.16;66.71;100801.06;5113510;28;20020;-36
2021/07/25 09:20:48;;;;;;;6.57;5.50;;;;;;;23.11;65.81;100790.97;5113539;28;20016;-36
2021/07/25 09:23:19;;;;;;;8.73;5.32;;;;;;;23.27;66.70;100805.97;5113537;28;20016;-35
2021/07/25 09:25:55;;;;;;;9.75;5.53;;;;;;;23.37;66.08;100800.16;5113791;28;20016;-36
2021/07/25 09:28:29;;;;;;;7.97;5.43;;;;;;;23.49;65.42;100799.59;5113472;28;20016;-35
2021/07/25 09:30:54;;;;;;;7.70;5.07;;;;;;;23.53;63.31;100785.97;5113925;28;20015;-36
2021/07/25 09:33:44;;;;;;;9.18;4.95;;;;;;;23.81;64.98;100794.84;5113064;28;20023;-36
2021/07/25 09:36:12;;;;;;;8.82;4.80;;;;;;;23.67;64.42;100788.63;5112960;28;20085;-35
2021/07/25 09:38:39;;;;;;;5.90;4.07;;;;;;;23.66;63.18;100782.28;5113186;28;20020;-36
2021/07/25 09:41:19;;;;;;;6.95;4.60;;;;;;;23.78;64.09;100796.31;5113271;28;20048;-36
2021/07/25 09:43:57;;;;;;;5.78;3.72;;;;;;;23.83;64.07;100779.59;5113190;28;20072;-36
2021/07/25 09:46:23;;;;;;;5.57;4.45;;;;;;;23.96;61.98;100794.41;5112912;28;20028;-36
2021/07/25 09:48:55;;;;;;;6.95;4.53;;;;;;;23.87;61.71;100775.06;5113608;28;20028;-35
2021/07/25 09:51:22;;;;;;;8.23;4.32;;;;;;;24.15;60.22;100788.56;5113376;28;20020;-36
2021/07/25 09:53:50;;;;;;;7.57;3.72;;;;;;;24.23;60.52;100784.19;5112707;28;20443;-36
2021/07/25 09:56:26;;;;;;;6.47;3.45;;;;;;;24.37;60.86;100787.63;5113567;28;20030;-35
2021/07/25 09:58:52;;;;;;;8.43;3.58;;;;;;;24.44;59.88;100784.38;5113614;28;20303;-35
2021/07/25 10:01:38;;;;;;;8.18;3.78;;;;;;;24.61;60.38;100785.19;5112937;28;20161;-36
2021/07/25 10:04:17;;;;;;;4.70;3.47;;;;;;;24.75;59.16;100778.66;5112857;28;20020;-35
2021/07/25 10:06:45;;;;;;;5.75;2.92;;;;;;;24.86;57.49;100782.69;5112752;28;20039;-36
2021/07/25 10:09:15;;;;;;;6.20;3.40;;;;;;;24.96;58.00;100770.47;5112653;28;20515;-35
2021/07/25 10:12:04;;;;;;;5.70;3.42;;;;;;;25.15;58.75;100779.25;5112726;28;20520;-36
2021/07/25 10:14:32;;;;;;;5.20;3.08;;;;;;;25.12;55.11;100771.59;5115621;28;20023;-36
2021/07/25 10:17:01;;;;;;;6.15;3.17;;;;;;;25.15;56.02;100770.94;5116814;28;20076;-36
2021/07/25 10:19:42;;;;;;;5.45;3.10;;;;;;;25.12;54.93;100766.06;5116246;28;20409;-36
2021/07/25 10:22:10;;;;;;;5.78;3.20;;;;;;;25.33;54.98;100780.00;5116770;28;20023;-38
2021/07/25 10:24:37;;;;;;;6.22;2.65;;;;;;;25.30;55.29;100767.63;5117111;28;20407;-36
2021/07/25 10:27:04;;;;;;;5.82;2.78;;;;;;;25.28;53.49;100769.09;5116122;28;20313;-36
2021/07/25 10:29:30;;;;;;;7.85;2.83;;;;;;;25.37;54.38;100773.44;5116608;28;20367;-36
2021/07/25 10:31:55;;;;;;;6.72;2.47;;;;;;;25.19;53.85;100776.63;5116162;28;20023;-36
2021/07/25 10:34:22;;;;;;;3.75;2.10;;;;;;;24.87;52.89;100776.03;5116269;28;20114;-36
2021/07/25 10:36:49;;;;;;;5.00;2.38;;;;;;;24.87;55.53;100773.25;5116269;28;20035;-36
2021/07/25 10:39:16;;;;;;;3.58;2.35;;;;;;;25.02;53.57;100766.38;5116258;28;20038;-36
2021/07/25 10:41:46;;;;;;;4.97;2.08;;;;;;;25.31;53.61;100774.78;5116622;28;20015;-36
2021/07/25 10:44:11;;;;;;;4.85;2.35;;;;;;;25.51;54.97;100775.16;5116365;28;20114;-36
2021/07/25 10:46:36;;;;;;;3.20;2.20;;;;;;;25.41;51.83;100763.31;5116385;28;20107;-36
2021/07/25 10:49:04;;;;;;;4.80;1.80;;;;;;;25.72;51.78;100775.22;5116037;28;20363;-36
2021/07/25 10:51:30;;;;;;;3.55;2.20;;;;;;;25.85;51.20;100771.44;5116725;28;20405;-36
2021/07/25 10:54:23;;;;;;;4.10;2.33;;;;;;;26.08;51.52;100769.16;5115668;28;20026;-36
2021/07/25 10:57:12;;;;;;;4.35;2.30;;;;;;;25.92;51.97;100775.31;5116575;28;20025;-36
2021/07/25 10:59:40;;;;;;;4.03;2.30;;;;;;;25.67;52.36;100771.50;5116206;28;20348;-36
2021/07/25 11:02:06;;;;;;;6.18;2.50;;;;;;;25.72;51.40;100772.44;5116351;28;20024;-36
2021/07/25 11:04:50;;;;;;;5.72;2.13;;;;;;;25.90;50.64;100749.88;5116028;28;20028;-36
2021/07/25 11:07:24;;;;;;;4.20;2.05;;;;;;;26.09;52.68;100774.34;5115942;28;20048;-36
2021/07/25 11:09:56;;;;;;;5.50;2.58;;;;;;;26.23;51.58;100764.97;5115629;28;20352;-36
2021/07/25 11:12:21;;;;;;;4.75;2.30;;;;;;;26.36;49.67;100753.59;5115857;28;20106;-36
2021/07/25 11:14:55;;;;;;;3.20;2.20;;;;;;;26.60;50.66;100761.25;5115556;28;20553;-36
2021/07/25 11:17:45;;;;;;;4.13;2.30;;;;;;;26.35;49.89;100768.63;5116115;28;20031;-36
2021/07/25 11:20:36;;;;;;;6.20;2.22;;;;;;;26.55;51.16;100763.38;5115389;28;20405;-36
2021/07/25 11:23:04;;;;;;;5.60;2.38;;;;;;;26.70;49.09;100758.03;5032753;28;20481;-36
2021/07/25 11:25:36;;;;;;;2.63;1.88;;;;;;;26.48;49.21;100755.63;5032581;28;20037;-36
2021/07/25 11:28:04;;;;;;;3.95;1.90;;;;;;;26.29;48.73;100758.06;5032803;28;20374;-36
2021/07/25 11:30:47;;;;;;;3.95;2.30;;;;;;;26.70;52.07;100762.78;5032863;28;20029;-36
2021/07/25 11:33:41;;;;;;;6.28;2.22;;;;;;;26.87;50.90;100748.72;5032145;28;20026;-36
2021/07/25 11:36:11;;;;;;;3.05;1.95;;;;;;;27.03;48.48;100759.94;5032270;28;20030;-36